sensor_id;sensor_type;location;lat;lon;timestamp;P1;durP1;ratioP1;P2;durP2;ratioP2
286;SDS011;127;48.770;9.212;2023-02-20T00:01:56;11.83;;;4.67;;
286;SDS011;127;48.770;9.212;2023-02-20T00:04:25;15.83;;;6.00;;
286;SDS011;127;48.770;9.212;2023-02-20T00:06:53;13.43;;;4.87;;
286;SDS011;127;48.770;9.212;2023-02-20T00:09:22;12.73;;;5.43;;
286;SDS011;127;48.770;9.212;2023-02-20T00:11:52;10.70;;;4.97;;
286;SDS011;127;48.770;9.212;2023-02-20T00:14:20;7.37;;;4.30;;
286;SDS011;127;48.770;9.212;2023-02-20T00:16:52;17.80;;;6.97;;
286;SDS011;127;48.770;9.212;2023-02-20T00:19:21;11.73;;;5.47;;
286;SDS011;127;48.770;9.212;2023-02-20T00:21:49;8.27;;;4.30;;
286;SDS011;127;48.770;9.212;2023-02-20T00:24:18;12.80;;;4.80;;
286;SDS011;127;48.770;9.212;2023-02-20T00:26:47;14.00;;;5.57;;
286;SDS011;127;48.770;9.212;2023-02-20T00:29:19;9.23;;;5.00;;
286;SDS011;127;48.770;9.212;2023-02-20T00:31:53;18.40;;;5.60;;
286;SDS011;127;48.770;9.212;2023-02-20T00:34:25;11.90;;;5.23;;
286;SDS011;127;48.770;9.212;2023-02-20T00:36:54;18.63;;;6.20;;
286;SDS011;127;48.770;9.212;2023-02-20T00:39:23;16.50;;;6.47;;
286;SDS011;127;48.770;9.212;2023-02-20T00:41:52;10.37;;;5.63;;
286;SDS011;127;48.770;9.212;2023-02-20T00:44:21;13.07;;;5.23;;
286;SDS011;127;48.770;9.212;2023-02-20T00:46:50;14.83;;;4.70;;
286;SDS011;127;48.770;9.212;2023-02-20T00:49:21;13.23;;;5.90;;
286;SDS011;127;48.770;9.212;2023-02-20T00:51:50;9.50;;;4.97;;
286;SDS011;127;48.770;9.212;2023-02-20T00:54:18;8.93;;;5.03;;
286;SDS011;127;48.770;9.212;2023-02-20T00:56:47;10.53;;;5.37;;
286;SDS011;127;48.770;9.212;2023-02-20T00:59:16;12.20;;;5.50;;
286;SDS011;127;48.770;9.212;2023-02-20T01:01:44;8.33;;;5.13;;
286;SDS011;127;48.770;9.212;2023-02-20T01:04:15;11.70;;;5.10;;
286;SDS011;127;48.770;9.212;2023-02-20T01:06:44;11.10;;;4.57;;
286;SDS011;127;48.770;9.212;2023-02-20T01:09:13;9.00;;;4.13;;
286;SDS011;127;48.770;9.212;2023-02-20T01:11:43;9.60;;;5.10;;
286;SDS011;127;48.770;9.212;2023-02-20T01:14:12;6.57;;;4.63;;
286;SDS011;127;48.770;9.212;2023-02-20T01:16:43;10.33;;;4.70;;
286;SDS011;127;48.770;9.212;2023-02-20T01:19:12;7.60;;;5.70;;
286;SDS011;127;48.770;9.212;2023-02-20T01:21:44;10.60;;;4.93;;
286;SDS011;127;48.770;9.212;2023-02-20T01:24:13;8.23;;;5.00;;
286;SDS011;127;48.770;9.212;2023-02-20T01:26:42;8.70;;;5.47;;
286;SDS011;127;48.770;9.212;2023-02-20T01:29:11;13.50;;;4.83;;
286;SDS011;127;48.770;9.212;2023-02-20T01:31:45;9.33;;;4.83;;
286;SDS011;127;48.770;9.212;2023-02-20T01:34:17;11.60;;;4.77;;
286;SDS011;127;48.770;9.212;2023-02-20T01:36:48;11.00;;;4.70;;
286;SDS011;127;48.770;9.212;2023-02-20T01:39:19;18.60;;;5.27;;
286;SDS011;127;48.770;9.212;2023-02-20T01:41:49;9.80;;;4.80;;
286;SDS011;127;48.770;9.212;2023-02-20T01:44:22;14.60;;;4.60;;
286;SDS011;127;48.770;9.212;2023-02-20T01:46:53;8.63;;;5.70;;
286;SDS011;127;48.770;9.212;2023-02-20T01:49:27;9.10;;;4.83;;
286;SDS011;127;48.770;9.212;2023-02-20T01:52:01;9.43;;;5.07;;
286;SDS011;127;48.770;9.212;2023-02-20T01:54:34;17.07;;;5.50;;
286;SDS011;127;48.770;9.212;2023-02-20T01:57:04;9.10;;;4.40;;
286;SDS011;127;48.770;9.212;2023-02-20T01:59:40;8.47;;;4.70;;
286;SDS011;127;48.770;9.212;2023-02-20T02:02:11;13.53;;;5.60;;
286;SDS011;127;48.770;9.212;2023-02-20T02:04:42;12.07;;;4.50;;
286;SDS011;127;48.770;9.212;2023-02-20T02:07:11;10.10;;;4.17;;
286;SDS011;127;48.770;9.212;2023-02-20T02:09:42;11.00;;;4.90;;
286;SDS011;127;48.770;9.212;2023-02-20T02:12:14;10.70;;;4.10;;
286;SDS011;127;48.770;9.212;2023-02-20T02:14:42;14.77;;;5.20;;
286;SDS011;127;48.770;9.212;2023-02-20T02:17:19;7.80;;;4.23;;
286;SDS011;127;48.770;9.212;2023-02-20T02:20:11;13.80;;;4.47;;
286;SDS011;127;48.770;9.212;2023-02-20T02:23:23;12.63;;;4.20;;
286;SDS011;127;48.770;9.212;2023-02-20T02:26:17;10.30;;;5.40;;
286;SDS011;127;48.770;9.212;2023-02-20T02:29:18;9.60;;;4.07;;
286;SDS011;127;48.770;9.212;2023-02-20T02:32:23;13.40;;;4.30;;
286;SDS011;127;48.770;9.212;2023-02-20T02:35:16;8.27;;;4.90;;
286;SDS011;127;48.770;9.212;2023-02-20T02:38:12;10.60;;;4.70;;
286;SDS011;127;48.770;9.212;2023-02-20T02:40:51;10.37;;;4.47;;
286;SDS011;127;48.770;9.212;2023-02-20T02:43:28;10.70;;;4.30;;
286;SDS011;127;48.770;9.212;2023-02-20T02:46:04;13.87;;;5.20;;
286;SDS011;127;48.770;9.212;2023-02-20T02:48:38;6.77;;;3.80;;
286;SDS011;127;48.770;9.212;2023-02-20T02:51:12;8.17;;;3.23;;
286;SDS011;127;48.770;9.212;2023-02-20T02:56:36;15.03;;;7.00;;
286;SDS011;127;48.770;9.212;2023-02-20T02:59:08;7.57;;;3.83;;
286;SDS011;127;48.770;9.212;2023-02-20T03:01:41;8.90;;;4.23;;
286;SDS011;127;48.770;9.212;2023-02-20T03:04:12;5.80;;;3.80;;
286;SDS011;127;48.770;9.212;2023-02-20T03:06:47;10.67;;;5.00;;
286;SDS011;127;48.770;9.212;2023-02-20T03:09:22;8.83;;;4.20;;
286;SDS011;127;48.770;9.212;2023-02-20T03:11:53;7.10;;;4.53;;
286;SDS011;127;48.770;9.212;2023-02-20T03:14:24;8.90;;;5.20;;
286;SDS011;127;48.770;9.212;2023-02-20T03:17:12;10.83;;;4.00;;
286;SDS011;127;48.770;9.212;2023-02-20T03:19:54;15.50;;;4.47;;
286;SDS011;127;48.770;9.212;2023-02-20T03:22:26;10.43;;;4.93;;
286;SDS011;127;48.770;9.212;2023-02-20T03:25:01;10.77;;;4.73;;
286;SDS011;127;48.770;9.212;2023-02-20T03:27:35;9.30;;;4.70;;
286;SDS011;127;48.770;9.212;2023-02-20T03:30:09;8.37;;;4.60;;
286;SDS011;127;48.770;9.212;2023-02-20T03:32:41;14.83;;;4.47;;
286;SDS011;127;48.770;9.212;2023-02-20T03:35:26;8.97;;;4.53;;
286;SDS011;127;48.770;9.212;2023-02-20T03:38:09;7.33;;;4.60;;
286;SDS011;127;48.770;9.212;2023-02-20T03:40:54;12.90;;;6.00;;
286;SDS011;127;48.770;9.212;2023-02-20T03:43:36;8.20;;;4.53;;
286;SDS011;127;48.770;9.212;2023-02-20T03:46:07;10.30;;;4.50;;
286;SDS011;127;48.770;9.212;2023-02-20T03:48:39;18.53;;;5.03;;
286;SDS011;127;48.770;9.212;2023-02-20T03:51:11;13.53;;;4.50;;
286;SDS011;127;48.770;9.212;2023-02-20T03:53:40;16.27;;;4.43;;
286;SDS011;127;48.770;9.212;2023-02-20T03:56:14;9.63;;;4.40;;
286;SDS011;127;48.770;9.212;2023-02-20T03:58:46;15.40;;;5.00;;
286;SDS011;127;48.770;9.212;2023-02-20T04:01:19;8.87;;;5.50;;
286;SDS011;127;48.770;9.212;2023-02-20T04:03:53;9.93;;;4.50;;
286;SDS011;127;48.770;9.212;2023-02-20T04:06:26;12.00;;;5.53;;
286;SDS011;127;48.770;9.212;2023-02-20T04:08:59;6.17;;;4.77;;
286;SDS011;127;48.770;9.212;2023-02-20T04:11:35;8.73;;;4.37;;
286;SDS011;127;48.770;9.212;2023-02-20T04:14:05;12.50;;;4.90;;
286;SDS011;127;48.770;9.212;2023-02-20T04:16:37;14.37;;;5.23;;
286;SDS011;127;48.770;9.212;2023-02-20T04:19:13;12.63;;;4.40;;
286;SDS011;127;48.770;9.212;2023-02-20T04:21:43;13.20;;;4.93;;
286;SDS011;127;48.770;9.212;2023-02-20T04:24:17;6.37;;;4.87;;
286;SDS011;127;48.770;9.212;2023-02-20T04:26:53;9.87;;;5.43;;
286;SDS011;127;48.770;9.212;2023-02-20T04:29:22;7.53;;;5.20;;
286;SDS011;127;48.770;9.212;2023-02-20T04:31:51;9.63;;;5.30;;
286;SDS011;127;48.770;9.212;2023-02-20T04:34:20;21.43;;;4.70;;
286;SDS011;127;48.770;9.212;2023-02-20T04:36:49;16.03;;;5.90;;
286;SDS011;127;48.770;9.212;2023-02-20T04:39:21;13.03;;;4.93;;
286;SDS011;127;48.770;9.212;2023-02-20T04:41:49;8.20;;;4.87;;
286;SDS011;127;48.770;9.212;2023-02-20T04:44:20;19.30;;;5.63;;
286;SDS011;127;48.770;9.212;2023-02-20T04:46:59;9.23;;;4.90;;
286;SDS011;127;48.770;9.212;2023-02-20T04:49:28;12.33;;;5.60;;
286;SDS011;127;48.770;9.212;2023-02-20T04:51:57;16.67;;;5.57;;
286;SDS011;127;48.770;9.212;2023-02-20T04:54:26;12.40;;;4.70;;
286;SDS011;127;48.770;9.212;2023-02-20T04:56:57;8.90;;;5.50;;
286;SDS011;127;48.770;9.212;2023-02-20T04:59:26;9.00;;;5.73;;
286;SDS011;127;48.770;9.212;2023-02-20T05:01:54;23.90;;;6.20;;
286;SDS011;127;48.770;9.212;2023-02-20T05:04:26;8.40;;;4.73;;
286;SDS011;127;48.770;9.212;2023-02-20T05:06:55;8.57;;;5.00;;
286;SDS011;127;48.770;9.212;2023-02-20T05:09:24;11.97;;;6.40;;
286;SDS011;127;48.770;9.212;2023-02-20T05:11:52;11.60;;;5.50;;
286;SDS011;127;48.770;9.212;2023-02-20T05:14:24;12.00;;;4.83;;
286;SDS011;127;48.770;9.212;2023-02-20T05:16:52;18.13;;;5.90;;
286;SDS011;127;48.770;9.212;2023-02-20T05:19:21;10.30;;;5.13;;
286;SDS011;127;48.770;9.212;2023-02-20T05:21:50;12.17;;;5.17;;
286;SDS011;127;48.770;9.212;2023-02-20T05:24:31;12.67;;;5.70;;
286;SDS011;127;48.770;9.212;2023-02-20T05:26:59;10.10;;;5.63;;
286;SDS011;127;48.770;9.212;2023-02-20T05:29:31;20.03;;;6.10;;
286;SDS011;127;48.770;9.212;2023-02-20T05:31:59;17.20;;;6.10;;
286;SDS011;127;48.770;9.212;2023-02-20T05:34:28;12.10;;;5.20;;
286;SDS011;127;48.770;9.212;2023-02-20T05:36:56;9.70;;;5.40;;
286;SDS011;127;48.770;9.212;2023-02-20T05:39:25;13.80;;;5.17;;
286;SDS011;127;48.770;9.212;2023-02-20T05:41:53;13.77;;;5.63;;
286;SDS011;127;48.770;9.212;2023-02-20T05:44:22;14.33;;;5.37;;
286;SDS011;127;48.770;9.212;2023-02-20T05:46:53;14.37;;;5.67;;
286;SDS011;127;48.770;9.212;2023-02-20T05:49:22;10.37;;;5.77;;
286;SDS011;127;48.770;9.212;2023-02-20T05:51:51;11.20;;;5.30;;
286;SDS011;127;48.770;9.212;2023-02-20T05:54:23;10.10;;;5.00;;
286;SDS011;127;48.770;9.212;2023-02-20T05:56:52;19.17;;;5.73;;
286;SDS011;127;48.770;9.212;2023-02-20T05:59:22;14.57;;;5.47;;
286;SDS011;127;48.770;9.212;2023-02-20T06:01:57;12.83;;;5.20;;
286;SDS011;127;48.770;9.212;2023-02-20T06:04:27;12.63;;;6.00;;
286;SDS011;127;48.770;9.212;2023-02-20T06:06:56;14.03;;;5.60;;
286;SDS011;127;48.770;9.212;2023-02-20T06:09:24;11.20;;;6.07;;
286;SDS011;127;48.770;9.212;2023-02-20T06:11:53;13.67;;;5.60;;
286;SDS011;127;48.770;9.212;2023-02-20T06:14:25;12.00;;;5.10;;
286;SDS011;127;48.770;9.212;2023-02-20T06:16:57;22.93;;;6.30;;
286;SDS011;127;48.770;9.212;2023-02-20T06:19:26;15.90;;;6.30;;
286;SDS011;127;48.770;9.212;2023-02-20T06:21:55;12.63;;;5.47;;
286;SDS011;127;48.770;9.212;2023-02-20T06:24:25;13.30;;;5.80;;
286;SDS011;127;48.770;9.212;2023-02-20T06:26:54;13.40;;;6.23;;
286;SDS011;127;48.770;9.212;2023-02-20T06:29:23;8.90;;;5.10;;
286;SDS011;127;48.770;9.212;2023-02-20T06:31:53;14.30;;;5.50;;
286;SDS011;127;48.770;9.212;2023-02-20T06:34:26;13.27;;;5.80;;
286;SDS011;127;48.770;9.212;2023-02-20T06:36:57;16.23;;;5.83;;
286;SDS011;127;48.770;9.212;2023-02-20T06:39:27;11.07;;;5.57;;
286;SDS011;127;48.770;9.212;2023-02-20T06:41:56;10.37;;;5.63;;
286;SDS011;127;48.770;9.212;2023-02-20T06:44:25;14.30;;;5.40;;
286;SDS011;127;48.770;9.212;2023-02-20T06:46:54;15.73;;;6.30;;
286;SDS011;127;48.770;9.212;2023-02-20T06:49:23;11.83;;;5.90;;
286;SDS011;127;48.770;9.212;2023-02-20T06:51:54;15.40;;;5.70;;
286;SDS011;127;48.770;9.212;2023-02-20T06:54:23;16.30;;;6.40;;
286;SDS011;127;48.770;9.212;2023-02-20T06:56:51;10.60;;;5.23;;
286;SDS011;127;48.770;9.212;2023-02-20T06:59:21;9.70;;;5.00;;
286;SDS011;127;48.770;9.212;2023-02-20T07:01:50;12.00;;;5.53;;
286;SDS011;127;48.770;9.212;2023-02-20T07:04:20;14.70;;;6.83;;
286;SDS011;127;48.770;9.212;2023-02-20T07:06:53;10.10;;;5.00;;
286;SDS011;127;48.770;9.212;2023-02-20T07:09:23;11.50;;;5.67;;
286;SDS011;127;48.770;9.212;2023-02-20T07:11:52;12.93;;;5.83;;
286;SDS011;127;48.770;9.212;2023-02-20T07:14:21;12.00;;;5.50;;
286;SDS011;127;48.770;9.212;2023-02-20T07:16:50;10.90;;;5.67;;
286;SDS011;127;48.770;9.212;2023-02-20T07:19:19;21.77;;;6.53;;
286;SDS011;127;48.770;9.212;2023-02-20T07:21:47;11.13;;;6.03;;
286;SDS011;127;48.770;9.212;2023-02-20T07:24:19;7.20;;;5.00;;
286;SDS011;127;48.770;9.212;2023-02-20T07:26:47;14.73;;;5.20;;
286;SDS011;127;48.770;9.212;2023-02-20T07:29:16;13.10;;;5.33;;
286;SDS011;127;48.770;9.212;2023-02-20T07:31:44;13.80;;;4.97;;
286;SDS011;127;48.770;9.212;2023-02-20T07:34:13;8.10;;;4.83;;
286;SDS011;127;48.770;9.212;2023-02-20T07:36:42;12.43;;;4.20;;
286;SDS011;127;48.770;9.212;2023-02-20T07:39:11;9.90;;;4.53;;
286;SDS011;127;48.770;9.212;2023-02-20T07:41:43;9.07;;;5.33;;
286;SDS011;127;48.770;9.212;2023-02-20T07:44:11;11.93;;;5.00;;
286;SDS011;127;48.770;9.212;2023-02-20T07:46:40;14.13;;;5.00;;
286;SDS011;127;48.770;9.212;2023-02-20T07:49:09;13.27;;;5.07;;
286;SDS011;127;48.770;9.212;2023-02-20T07:51:37;13.57;;;5.67;;
286;SDS011;127;48.770;9.212;2023-02-20T07:54:06;17.93;;;5.10;;
286;SDS011;127;48.770;9.212;2023-02-20T07:56:35;9.53;;;5.13;;
286;SDS011;127;48.770;9.212;2023-02-20T07:59:06;13.20;;;4.83;;
286;SDS011;127;48.770;9.212;2023-02-20T08:01:35;16.90;;;5.57;;
286;SDS011;127;48.770;9.212;2023-02-20T08:04:04;11.33;;;4.57;;
286;SDS011;127;48.770;9.212;2023-02-20T08:06:33;12.43;;;5.20;;
286;SDS011;127;48.770;9.212;2023-02-20T08:09:01;12.20;;;5.40;;
286;SDS011;127;48.770;9.212;2023-02-20T08:11:31;8.80;;;4.43;;
286;SDS011;127;48.770;9.212;2023-02-20T08:14:01;9.23;;;4.33;;
286;SDS011;127;48.770;9.212;2023-02-20T08:16:33;12.50;;;4.10;;
286;SDS011;127;48.770;9.212;2023-02-20T08:19:02;11.30;;;5.00;;
286;SDS011;127;48.770;9.212;2023-02-20T08:21:30;11.10;;;4.60;;
286;SDS011;127;48.770;9.212;2023-02-20T08:23:59;10.00;;;4.40;;
286;SDS011;127;48.770;9.212;2023-02-20T08:26:28;7.70;;;4.40;;
286;SDS011;127;48.770;9.212;2023-02-20T08:28:58;7.83;;;4.40;;
286;SDS011;127;48.770;9.212;2023-02-20T08:31:27;12.37;;;5.10;;
286;SDS011;127;48.770;9.212;2023-02-20T08:33:59;6.77;;;3.90;;
286;SDS011;127;48.770;9.212;2023-02-20T08:36:27;8.27;;;4.70;;
286;SDS011;127;48.770;9.212;2023-02-20T08:38:56;6.13;;;3.77;;
286;SDS011;127;48.770;9.212;2023-02-20T08:41:27;14.07;;;4.60;;
286;SDS011;127;48.770;9.212;2023-02-20T08:43:56;13.30;;;4.23;;
286;SDS011;127;48.770;9.212;2023-02-20T08:46:24;9.13;;;4.50;;
286;SDS011;127;48.770;9.212;2023-02-20T08:48:53;11.90;;;4.67;;
286;SDS011;127;48.770;9.212;2023-02-20T08:51:24;6.63;;;3.70;;
286;SDS011;127;48.770;9.212;2023-02-20T08:53:53;15.67;;;5.00;;
286;SDS011;127;48.770;9.212;2023-02-20T08:56:21;12.83;;;3.67;;
286;SDS011;127;48.770;9.212;2023-02-20T08:58:50;8.10;;;4.10;;
286;SDS011;127;48.770;9.212;2023-02-20T09:01:20;6.60;;;3.77;;
286;SDS011;127;48.770;9.212;2023-02-20T09:03:49;14.23;;;5.03;;
286;SDS011;127;48.770;9.212;2023-02-20T09:06:17;8.50;;;3.80;;
286;SDS011;127;48.770;9.212;2023-02-20T09:08:51;7.23;;;3.80;;
286;SDS011;127;48.770;9.212;2023-02-20T09:11:20;6.60;;;4.00;;
286;SDS011;127;48.770;9.212;2023-02-20T09:13:48;10.53;;;4.70;;
286;SDS011;127;48.770;9.212;2023-02-20T09:16:18;9.50;;;4.40;;
286;SDS011;127;48.770;9.212;2023-02-20T09:18:49;7.40;;;3.87;;
286;SDS011;127;48.770;9.212;2023-02-20T09:21:19;8.97;;;3.10;;
286;SDS011;127;48.770;9.212;2023-02-20T09:23:51;6.20;;;3.30;;
286;SDS011;127;48.770;9.212;2023-02-20T09:26:19;7.97;;;4.20;;
286;SDS011;127;48.770;9.212;2023-02-20T09:28:48;8.93;;;3.20;;
286;SDS011;127;48.770;9.212;2023-02-20T09:31:16;6.10;;;2.93;;
286;SDS011;127;48.770;9.212;2023-02-20T09:33:45;7.63;;;2.70;;
286;SDS011;127;48.770;9.212;2023-02-20T09:36:14;5.77;;;2.53;;
286;SDS011;127;48.770;9.212;2023-02-20T09:38:42;6.43;;;2.17;;
286;SDS011;127;48.770;9.212;2023-02-20T09:41:17;7.73;;;2.60;;
286;SDS011;127;48.770;9.212;2023-02-20T09:43:54;9.03;;;2.90;;
286;SDS011;127;48.770;9.212;2023-02-20T09:46:29;8.90;;;2.93;;
286;SDS011;127;48.770;9.212;2023-02-20T09:49:00;5.97;;;2.60;;
286;SDS011;127;48.770;9.212;2023-02-20T09:51:32;7.97;;;2.97;;
286;SDS011;127;48.770;9.212;2023-02-20T09:54:04;9.77;;;2.40;;
286;SDS011;127;48.770;9.212;2023-02-20T09:56:39;8.60;;;2.33;;
286;SDS011;127;48.770;9.212;2023-02-20T09:59:12;14.93;;;3.33;;
286;SDS011;127;48.770;9.212;2023-02-20T10:01:48;13.23;;;3.00;;
286;SDS011;127;48.770;9.212;2023-02-20T10:04:21;8.53;;;2.20;;
286;SDS011;127;48.770;9.212;2023-02-20T10:06:53;6.47;;;2.37;;
286;SDS011;127;48.770;9.212;2023-02-20T10:09:27;8.97;;;2.30;;
286;SDS011;127;48.770;9.212;2023-02-20T10:12:03;11.10;;;2.43;;
286;SDS011;127;48.770;9.212;2023-02-20T10:17:46;10.00;;;2.80;;
286;SDS011;127;48.770;9.212;2023-02-20T10:20:22;10.27;;;2.17;;
286;SDS011;127;48.770;9.212;2023-02-20T10:22:58;5.70;;;2.60;;
286;SDS011;127;48.770;9.212;2023-02-20T10:25:32;5.07;;;2.50;;
286;SDS011;127;48.770;9.212;2023-02-20T10:28:08;4.60;;;2.50;;
286;SDS011;127;48.770;9.212;2023-02-20T10:30:40;6.80;;;2.27;;
286;SDS011;127;48.770;9.212;2023-02-20T10:33:15;6.50;;;2.10;;
286;SDS011;127;48.770;9.212;2023-02-20T10:35:50;9.20;;;2.43;;
286;SDS011;127;48.770;9.212;2023-02-20T10:38:23;8.13;;;2.30;;
286;SDS011;127;48.770;9.212;2023-02-20T10:40:57;5.40;;;2.30;;
286;SDS011;127;48.770;9.212;2023-02-20T10:43:36;6.53;;;2.57;;
286;SDS011;127;48.770;9.212;2023-02-20T10:46:11;6.80;;;2.77;;
286;SDS011;127;48.770;9.212;2023-02-20T10:48:44;7.53;;;2.50;;
286;SDS011;127;48.770;9.212;2023-02-20T10:51:14;4.93;;;2.60;;
286;SDS011;127;48.770;9.212;2023-02-20T10:53:51;6.73;;;2.13;;
286;SDS011;127;48.770;9.212;2023-02-20T10:56:26;8.10;;;2.37;;
286;SDS011;127;48.770;9.212;2023-02-20T10:59:05;10.00;;;3.00;;
286;SDS011;127;48.770;9.212;2023-02-20T11:01:37;5.00;;;2.00;;
286;SDS011;127;48.770;9.212;2023-02-20T11:04:08;7.10;;;2.53;;
286;SDS011;127;48.770;9.212;2023-02-20T11:06:41;7.90;;;2.23;;
286;SDS011;127;48.770;9.212;2023-02-20T11:09:12;4.10;;;2.17;;
286;SDS011;127;48.770;9.212;2023-02-20T11:11:41;6.40;;;2.67;;
286;SDS011;127;48.770;9.212;2023-02-20T11:14:15;5.90;;;2.33;;
286;SDS011;127;48.770;9.212;2023-02-20T11:16:50;8.30;;;2.90;;
286;SDS011;127;48.770;9.212;2023-02-20T11:19:25;5.03;;;2.20;;
286;SDS011;127;48.770;9.212;2023-02-20T11:21:57;4.77;;;2.10;;
286;SDS011;127;48.770;9.212;2023-02-20T11:24:30;5.83;;;2.07;;
286;SDS011;127;48.770;9.212;2023-02-20T11:27:02;7.30;;;2.67;;
286;SDS011;127;48.770;9.212;2023-02-20T11:29:39;7.33;;;2.10;;
286;SDS011;127;48.770;9.212;2023-02-20T11:32:16;9.00;;;2.10;;
286;SDS011;127;48.770;9.212;2023-02-20T11:35:14;4.90;;;2.10;;
286;SDS011;127;48.770;9.212;2023-02-20T11:37:51;4.63;;;2.00;;
286;SDS011;127;48.770;9.212;2023-02-20T11:44:15;5.20;;;1.80;;
286;SDS011;127;48.770;9.212;2023-02-20T11:47:07;5.63;;;2.00;;
286;SDS011;127;48.770;9.212;2023-02-20T11:49:37;5.80;;;2.83;;
286;SDS011;127;48.770;9.212;2023-02-20T11:52:07;5.10;;;2.27;;
286;SDS011;127;48.770;9.212;2023-02-20T11:54:38;8.13;;;2.83;;
286;SDS011;127;48.770;9.212;2023-02-20T11:57:12;9.43;;;2.70;;
286;SDS011;127;48.770;9.212;2023-02-20T11:59:49;5.17;;;2.30;;
286;SDS011;127;48.770;9.212;2023-02-20T12:02:26;4.63;;;2.27;;
286;SDS011;127;48.770;9.212;2023-02-20T12:05:02;4.97;;;2.10;;
286;SDS011;127;48.770;9.212;2023-02-20T12:07:37;5.83;;;2.00;;
286;SDS011;127;48.770;9.212;2023-02-20T12:12:54;11.07;;;2.93;;
286;SDS011;127;48.770;9.212;2023-02-20T12:15:23;9.63;;;2.13;;
286;SDS011;127;48.770;9.212;2023-02-20T12:21:01;8.17;;;1.87;;
286;SDS011;127;48.770;9.212;2023-02-20T12:23:41;5.33;;;2.30;;
286;SDS011;127;48.770;9.212;2023-02-20T12:26:19;5.13;;;1.90;;
286;SDS011;127;48.770;9.212;2023-02-20T12:29:01;9.30;;;2.20;;
286;SDS011;127;48.770;9.212;2023-02-20T12:31:41;8.60;;;2.27;;
286;SDS011;127;48.770;9.212;2023-02-20T12:34:23;5.40;;;1.80;;
286;SDS011;127;48.770;9.212;2023-02-20T12:37:10;5.90;;;1.90;;
286;SDS011;127;48.770;9.212;2023-02-20T12:39:48;4.10;;;2.10;;
286;SDS011;127;48.770;9.212;2023-02-20T12:42:30;4.83;;;1.80;;
286;SDS011;127;48.770;9.212;2023-02-20T12:45:15;7.67;;;1.80;;
286;SDS011;127;48.770;9.212;2023-02-20T12:47:51;6.93;;;2.00;;
286;SDS011;127;48.770;9.212;2023-02-20T12:53:36;5.23;;;1.80;;
286;SDS011;127;48.770;9.212;2023-02-20T12:56:17;9.00;;;2.27;;
286;SDS011;127;48.770;9.212;2023-02-20T12:58:54;6.63;;;1.90;;
286;SDS011;127;48.770;9.212;2023-02-20T13:01:27;6.00;;;1.73;;
286;SDS011;127;48.770;9.212;2023-02-20T13:03:58;3.60;;;1.80;;
286;SDS011;127;48.770;9.212;2023-02-20T13:06:32;3.00;;;1.50;;
286;SDS011;127;48.770;9.212;2023-02-20T13:09:10;7.77;;;1.97;;
286;SDS011;127;48.770;9.212;2023-02-20T13:11:46;7.80;;;2.53;;
286;SDS011;127;48.770;9.212;2023-02-20T13:14:20;4.67;;;1.70;;
286;SDS011;127;48.770;9.212;2023-02-20T13:16:59;6.27;;;1.77;;
286;SDS011;127;48.770;9.212;2023-02-20T13:19:36;3.17;;;1.37;;
286;SDS011;127;48.770;9.212;2023-02-20T13:22:07;4.00;;;1.77;;
286;SDS011;127;48.770;9.212;2023-02-20T13:24:39;3.60;;;1.80;;
286;SDS011;127;48.770;9.212;2023-02-20T13:27:08;2.03;;;1.50;;
286;SDS011;127;48.770;9.212;2023-02-20T13:29:55;4.40;;;1.90;;
286;SDS011;127;48.770;9.212;2023-02-20T13:32:26;7.53;;;2.37;;
286;SDS011;127;48.770;9.212;2023-02-20T13:37:55;2.00;;;1.23;;
286;SDS011;127;48.770;9.212;2023-02-20T13:40:41;3.17;;;1.83;;
286;SDS011;127;48.770;9.212;2023-02-20T13:46:09;2.63;;;1.40;;
286;SDS011;127;48.770;9.212;2023-02-20T13:48:49;6.10;;;2.10;;
286;SDS011;127;48.770;9.212;2023-02-20T13:51:33;3.20;;;1.60;;
286;SDS011;127;48.770;9.212;2023-02-20T13:56:56;3.83;;;1.47;;
286;SDS011;127;48.770;9.212;2023-02-20T13:59:38;1.73;;;1.33;;
286;SDS011;127;48.770;9.212;2023-02-20T14:02:15;4.40;;;1.40;;
286;SDS011;127;48.770;9.212;2023-02-20T14:04:51;3.87;;;1.40;;
286;SDS011;127;48.770;9.212;2023-02-20T14:07:32;2.10;;;1.20;;
286;SDS011;127;48.770;9.212;2023-02-20T14:10:05;3.53;;;1.07;;
286;SDS011;127;48.770;9.212;2023-02-20T14:12:43;3.10;;;1.20;;
286;SDS011;127;48.770;9.212;2023-02-20T14:15:13;1.50;;;1.17;;
286;SDS011;127;48.770;9.212;2023-02-20T14:17:42;2.40;;;1.43;;
286;SDS011;127;48.770;9.212;2023-02-20T14:20:15;8.40;;;1.30;;
286;SDS011;127;48.770;9.212;2023-02-20T14:22:47;5.90;;;1.20;;
286;SDS011;127;48.770;9.212;2023-02-20T14:25:20;1.60;;;1.10;;
286;SDS011;127;48.770;9.212;2023-02-20T14:28:02;2.90;;;1.00;;
286;SDS011;127;48.770;9.212;2023-02-20T14:30:32;1.00;;;1.00;;
286;SDS011;127;48.770;9.212;2023-02-20T14:33:00;4.73;;;1.00;;
286;SDS011;127;48.770;9.212;2023-02-20T14:35:40;3.10;;;1.10;;
286;SDS011;127;48.770;9.212;2023-02-20T14:38:19;1.73;;;1.10;;
286;SDS011;127;48.770;9.212;2023-02-20T14:40:55;2.00;;;1.10;;
286;SDS011;127;48.770;9.212;2023-02-20T14:43:26;4.80;;;1.20;;
286;SDS011;127;48.770;9.212;2023-02-20T14:46:00;1.90;;;0.90;;
286;SDS011;127;48.770;9.212;2023-02-20T14:48:31;2.67;;;1.07;;
286;SDS011;127;48.770;9.212;2023-02-20T14:51:12;3.53;;;1.03;;
286;SDS011;127;48.770;9.212;2023-02-20T14:53:43;3.40;;;1.17;;
286;SDS011;127;48.770;9.212;2023-02-20T14:56:23;1.40;;;1.10;;
286;SDS011;127;48.770;9.212;2023-02-20T14:58:54;1.67;;;1.10;;
286;SDS011;127;48.770;9.212;2023-02-20T15:01:32;2.00;;;1.40;;
286;SDS011;127;48.770;9.212;2023-02-20T15:04:04;7.67;;;1.70;;
286;SDS011;127;48.770;9.212;2023-02-20T15:06:38;4.50;;;1.97;;
286;SDS011;127;48.770;9.212;2023-02-20T15:09:08;2.67;;;1.27;;
286;SDS011;127;48.770;9.212;2023-02-20T15:11:43;4.50;;;1.80;;
286;SDS011;127;48.770;9.212;2023-02-20T15:14:21;1.70;;;1.23;;
286;SDS011;127;48.770;9.212;2023-02-20T15:17:08;2.77;;;1.10;;
286;SDS011;127;48.770;9.212;2023-02-20T15:19:47;1.97;;;1.00;;
286;SDS011;127;48.770;9.212;2023-02-20T15:22:20;1.80;;;1.50;;
286;SDS011;127;48.770;9.212;2023-02-20T15:24:51;2.10;;;1.10;;
286;SDS011;127;48.770;9.212;2023-02-20T15:27:20;7.63;;;1.50;;
286;SDS011;127;48.770;9.212;2023-02-20T15:32:42;3.17;;;1.60;;
286;SDS011;127;48.770;9.212;2023-02-20T15:35:19;4.40;;;1.30;;
286;SDS011;127;48.770;9.212;2023-02-20T15:37:52;8.50;;;1.30;;
286;SDS011;127;48.770;9.212;2023-02-20T15:40:24;5.60;;;1.37;;
286;SDS011;127;48.770;9.212;2023-02-20T15:42:55;3.00;;;1.20;;
286;SDS011;127;48.770;9.212;2023-02-20T15:45:27;3.13;;;1.00;;
286;SDS011;127;48.770;9.212;2023-02-20T15:47:58;3.93;;;1.00;;
286;SDS011;127;48.770;9.212;2023-02-20T15:50:26;4.23;;;1.17;;
286;SDS011;127;48.770;9.212;2023-02-20T15:52:55;10.43;;;1.50;;
286;SDS011;127;48.770;9.212;2023-02-20T15:55:24;7.50;;;1.27;;
286;SDS011;127;48.770;9.212;2023-02-20T15:57:54;1.63;;;1.03;;
286;SDS011;127;48.770;9.212;2023-02-20T16:00:28;2.90;;;1.30;;
286;SDS011;127;48.770;9.212;2023-02-20T16:02:58;1.70;;;1.10;;
286;SDS011;127;48.770;9.212;2023-02-20T16:05:28;2.50;;;0.93;;
286;SDS011;127;48.770;9.212;2023-02-20T16:07:56;1.97;;;1.13;;
286;SDS011;127;48.770;9.212;2023-02-20T16:10:25;9.03;;;1.10;;
286;SDS011;127;48.770;9.212;2023-02-20T16:12:54;2.37;;;0.97;;
286;SDS011;127;48.770;9.212;2023-02-20T16:15:27;1.73;;;0.80;;
286;SDS011;127;48.770;9.212;2023-02-20T16:17:55;1.63;;;1.00;;
286;SDS011;127;48.770;9.212;2023-02-20T16:20:25;4.07;;;1.00;;
286;SDS011;127;48.770;9.212;2023-02-20T16:22:55;2.60;;;1.10;;
286;SDS011;127;48.770;9.212;2023-02-20T16:25:24;3.70;;;1.30;;
286;SDS011;127;48.770;9.212;2023-02-20T16:27:53;2.57;;;1.20;;
286;SDS011;127;48.770;9.212;2023-02-20T16:30:24;3.50;;;1.40;;
286;SDS011;127;48.770;9.212;2023-02-20T16:32:58;2.20;;;1.50;;
286;SDS011;127;48.770;9.212;2023-02-20T16:35:27;3.37;;;1.77;;
286;SDS011;127;48.770;9.212;2023-02-20T16:37:56;2.10;;;1.50;;
286;SDS011;127;48.770;9.212;2023-02-20T16:40:25;1.70;;;1.43;;
286;SDS011;127;48.770;9.212;2023-02-20T16:42:54;5.03;;;1.60;;
286;SDS011;127;48.770;9.212;2023-02-20T16:45:22;2.40;;;1.47;;